Time;durP1;ratioP1;P1;durP2;ratioP2;P2;SDS_P1;SDS_P2;PMS_P1;PMS_P2;Temp;Humidity;BMP_temperature;BMP_pressure;BME280_temperature;BME280_humidity;BME280_pressure;Samples;Min_cycle;Max_cycle;Signal;HPM_P1;HPM_P2
2022/10/31 00:00:00;;;;;;;;;;;;;;;7.45;80.95;100537.03;5026443;28;1914;-77
2022/10/31 00:02:30;;;;;;;;;;;;;;;7.50;81.09;100534.56;5026108;28;1792;-77
2022/10/31 00:04:56;;;;;;;;;;;;;;;7.47;81.22;100553.69;5026860;28;1932;-77
2022/10/31 00:07:23;;;;;;;;;;;;;;;7.45;81.25;100545.06;5027315;28;1713;-77
2022/10/31 00:09:49;;;;;;;;;;;;;;;7.44;81.26;100540.72;5026425;28;1859;-77
2022/10/31 00:12:15;;;;;;;;;;;;;;;7.51;81.15;100533.53;5027219;28;1834;-77
2022/10/31 00:14:41;;;;;;;;;;;;;;;7.47;80.80;100526.91;5026338;28;1923;-77
2022/10/31 00:17:08;;;;;;;;;;;;;;;7.45;81.13;100527.13;5026500;28;1757;-77
2022/10/31 00:19:34;;;;;;;;;;;;;;;7.48;80.87;100529.41;5030268;28;1715;-77
2022/10/31 00:22:01;;;;;;;;;;;;;;;7.46;81.23;100514.53;5024251;28;1902;-77
2022/10/31 00:24:27;;;;;;;;;;;;;;;7.49;80.81;100498.88;5027222;28;1919;-77
2022/10/31 00:26:53;;;;;;;;;;;;;;;7.45;80.98;100500.31;5031928;28;1714;-77
2022/10/31 00:29:19;;;;;;;;;;;;;;;7.44;80.90;100484.44;5025072;28;1873;-77
2022/10/31 00:31:46;;;;;;;;;;;;;;;7.49;80.84;100479.31;5025833;28;2549;-77
2022/10/31 00:34:12;;;;;;;;;;;;;;;7.47;80.88;100468.81;5025143;28;1848;-77
2022/10/31 00:36:38;;;;;;;;;;;;;;;7.46;80.89;100482.38;5027190;28;1800;-77
2022/10/31 00:39:04;;;;;;;;;;;;;;;7.57;80.58;100468.41;5026031;28;1807;-77
2022/10/31 00:41:31;;;;;;;;;;;;;;;7.49;81.00;100479.31;5027238;28;1965;-77
2022/10/31 00:44:00;;;;;;;;;;;;;;;7.46;80.93;100479.69;5025859;28;1768;-77
2022/10/31 00:46:26;;;;;;;;;;;;;;;7.51;81.02;100479.94;5027503;28;1797;-77
2022/10/31 00:48:53;;;;;;;;;;;;;;;7.45;81.09;100491.47;5028823;28;1807;-77
2022/10/31 00:51:19;;;;;;;;;;;;;;;7.45;81.32;100497.66;5025940;28;1828;-77
2022/10/31 00:53:45;;;;;;;;;;;;;;;7.44;81.21;100493.31;5026639;28;1867;-77
2022/10/31 00:56:14;;;;;;;;;;;;;;;7.47;81.34;100486.72;5025757;28;2204;-77
2022/10/31 00:58:40;;;;;;;;;;;;;;;7.50;80.82;100484.47;5040340;28;1738;-77
2022/10/31 01:01:07;;;;;;;;;;;;;;;7.48;80.93;100491.06;5024088;28;2203;-77
2022/10/31 01:03:33;;;;;;;;;;;;;;;7.45;81.30;100494.13;5025266;28;1884;-77
2022/10/31 01:06:04;;;;;;;;;;;;;;;7.44;80.91;100495.16;5025555;28;1681;-77
2022/10/31 01:08:30;;;;;;;;;;;;;;;7.44;81.32;100495.16;5025577;28;1827;-77
2022/10/31 01:10:57;;;;;;;;;;;;;;;7.49;80.99;100496.19;5020864;28;4711;-77
2022/10/31 01:13:23;;;;;;;;;;;;;;;7.45;81.11;100489.59;5029602;28;2011;-77
2022/10/31 01:15:49;;;;;;;;;;;;;;;7.44;81.01;100500.50;5025413;28;1763;-77
2022/10/31 01:18:16;;;;;;;;;;;;;;;7.44;81.28;100504.03;5026766;28;1757;-77
2022/10/31 01:20:42;;;;;;;;;;;;;;;7.44;81.41;100514.75;5026418;28;2284;-77
2022/10/31 01:23:08;;;;;;;;;;;;;;;7.43;80.87;100505.03;5025836;28;1816;-77
2022/10/31 01:25:34;;;;;;;;;;;;;;;7.44;80.96;100508.53;5025105;28;1829;-77
2022/10/31 01:28:01;;;;;;;;;;;;;;;7.45;80.85;100507.53;5025093;28;1862;-77
2022/10/31 01:30:30;;;;;;;;;;;;;;;7.44;80.85;100509.41;5024772;28;1809;-77
2022/10/31 01:32:59;;;;;;;;;;;;;;;7.47;81.01;100510.81;5025017;28;1837;-77
2022/10/31 01:35:27;;;;;;;;;;;;;;;7.44;80.89;100512.09;5026191;28;1795;-77
2022/10/31 01:37:54;;;;;;;;;;;;;;;7.45;81.14;100512.91;5025316;28;1760;-76
2022/10/31 01:40:20;;;;;;;;;;;;;;;7.44;81.15;100508.53;5025240;28;1914;-77
2022/10/31 01:42:46;;;;;;;;;;;;;;;7.43;80.98;100515.75;5026148;28;2192;-77
2022/10/31 01:45:15;;;;;;;;;;;;;;;7.47;80.83;100518.88;5024697;28;1797;-77
2022/10/31 01:47:42;;;;;;;;;;;;;;;7.44;80.99;100520.13;5024017;28;1813;-77
2022/10/31 01:50:08;;;;;;;;;;;;;;;7.44;80.92;100519.25;5024258;28;1815;-77
2022/10/31 01:52:34;;;;;;;;;;;;;;;7.45;81.30;100516.41;5024134;28;1737;-77
2022/10/31 01:55:01;;;;;;;;;;;;;;;7.45;81.25;100516.41;5024486;28;1764;-77
2022/10/31 01:57:36;;;;;;;;;;;;;;;7.44;81.31;100528.16;5026486;28;1736;-77
2022/10/31 02:00:02;;;;;;;;;;;;;;;7.44;81.17;100527.31;5023161;28;1865;-77
2022/10/31 02:02:29;;;;;;;;;;;;;;;7.45;80.96;100516.41;5028705;28;2011;-77
2022/10/31 02:04:58;;;;;;;;;;;;;;;7.49;81.09;100523.00;5025436;28;1796;-76
2022/10/31 02:07:24;;;;;;;;;;;;;;;7.46;81.07;100522.59;5029416;28;1749;-77
2022/10/31 02:09:50;;;;;;;;;;;;;;;7.45;81.30;100518.25;5028320;28;1832;-77
2022/10/31 02:12:16;;;;;;;;;;;;;;;7.45;81.24;100519.09;5029951;28;2154;-77
2022/10/31 02:14:45;;;;;;;;;;;;;;;7.45;81.20;100523.63;5030576;28;1763;-77
2022/10/31 02:17:11;;;;;;;;;;;;;;;7.58;80.47;100520.16;5028938;28;1763;-77
2022/10/31 02:19:37;;;;;;;;;;;;;;;7.48;80.93;100509.81;5028515;28;1836;-77
2022/10/31 02:22:03;;;;;;;;;;;;;;;7.45;80.85;100505.69;5028998;28;1988;-77
2022/10/31 02:24:30;;;;;;;;;;;;;;;7.53;80.88;100510.06;5028594;28;1763;-77
2022/10/31 02:26:58;;;;;;;;;;;;;;;7.47;81.07;100514.34;5028678;28;1785;-77
2022/10/31 02:29:25;;;;;;;;;;;;;;;7.46;81.07;100509.19;5029183;28;1825;-77
2022/10/31 02:31:51;;;;;;;;;;;;;;;7.44;81.01;100511.22;5032645;28;1851;-77
2022/10/31 02:34:17;;;;;;;;;;;;;;;7.43;81.28;100510.41;5027973;28;1887;-77
2022/10/31 02:36:44;;;;;;;;;;;;;;;7.44;81.33;100506.72;5028633;28;1886;-77
2022/10/31 02:39:10;;;;;;;;;;;;;;;7.45;81.22;100511.03;5028107;28;1879;-77
2022/10/31 02:41:36;;;;;;;;;;;;;;;7.44;80.84;100506.72;5026233;28;1914;-77
2022/10/31 02:44:05;;;;;;;;;;;;;;;7.44;81.31;100504.03;5025922;28;2232;-77
2022/10/31 02:46:31;;;;;;;;;;;;;;;7.45;80.97;100505.69;5028437;28;1763;-77
2022/10/31 02:48:58;;;;;;;;;;;;;;;7.53;80.99;100503.84;5026880;28;1876;-77
2022/10/31 02:51:24;;;;;;;;;;;;;;;7.45;81.01;100502.19;5027433;28;1836;-77
2022/10/31 02:53:53;;;;;;;;;;;;;;;7.49;80.64;100495.38;5028029;28;1793;-77
2022/10/31 02:56:19;;;;;;;;;;;;;;;7.46;81.05;100495.78;5028426;28;1877;-77
2022/10/31 02:58:46;;;;;;;;;;;;;;;7.44;80.87;100503.19;5027805;28;1889;-76
2022/10/31 03:01:12;;;;;;;;;;;;;;;7.48;80.88;100513.31;5027378;28;2199;-77
2022/10/31 03:03:38;;;;;;;;;;;;;;;7.46;80.95;100509.19;5017457;28;1908;-77
2022/10/31 03:06:04;;;;;;;;;;;;;;;7.44;80.88;100512.09;5022642;28;1872;-77
2022/10/31 03:08:31;;;;;;;;;;;;;;;7.45;81.04;100516.41;5011804;28;1839;-77
2022/10/31 03:10:57;;;;;;;;;;;;;;;7.45;80.92;100526.31;5008464;28;4732;-77
2022/10/31 03:13:23;;;;;;;;;;;;;;;7.44;80.89;100528.16;5021619;28;4714;-77
2022/10/31 03:15:50;;;;;;;;;;;;;;;7.44;81.31;100525.47;5030374;28;1715;-77
2022/10/31 03:18:16;;;;;;;;;;;;;;;7.45;80.98;100521.75;5013281;28;3891;-77
2022/10/31 03:20:42;;;;;;;;;;;;;;;7.46;81.01;100533.31;5017868;28;2009;-77
2022/10/31 03:23:11;;;;;;;;;;;;;;;7.44;80.93;100528.16;5013169;28;1733;-77
2022/10/31 03:25:38;;;;;;;;;;;;;;;7.46;81.27;100538.66;5013368;28;1872;-77
2022/10/31 03:28:04;;;;;;;;;;;;;;;7.46;80.86;100533.31;5009704;28;1786;-76
2022/10/31 03:30:30;;;;;;;;;;;;;;;7.45;81.15;100529.81;5013826;28;3880;-77
2022/10/31 03:33:04;;;;;;;;;;;;;;;7.46;81.24;100541.34;5017183;28;1809;-77
2022/10/31 03:35:30;;;;;;;;;;;;;;;7.45;81.23;100537.03;5014844;28;1786;-77
2022/10/31 03:37:56;;;;;;;;;;;;;;;7.46;80.97;100536.81;5015951;28;1892;-77
2022/10/31 03:40:23;;;;;;;;;;;;;;;7.46;81.29;100538.66;5011099;28;2486;-77
2022/10/31 03:42:49;;;;;;;;;;;;;;;7.46;80.99;100538.66;5007662;28;2817;-77
2022/10/31 03:45:17;;;;;;;;;;;;;;;7.46;80.88;100547.53;5006410;28;1716;-77
2022/10/31 03:47:43;;;;;;;;;;;;;;;7.45;81.24;100545.06;5011157;28;1779;-77
2022/10/31 03:50:10;;;;;;;;;;;;;;;7.45;81.21;100534.34;5016551;28;1884;-77
2022/10/31 03:52:36;;;;;;;;;;;;;;;7.46;81.00;100536.81;5014995;28;1877;-77
2022/10/31 03:55:02;;;;;;;;;;;;;;;7.48;81.02;100539.31;5010946;28;1752;-76
2022/10/31 03:57:30;;;;;;;;;;;;;;;7.47;80.93;100540.31;5016810;28;1876;-77
2022/10/31 04:00:03;;;;;;;;;;;;;;;7.46;81.04;100542.16;5009718;28;1879;-77
2022/10/31 04:02:30;;;;;;;;;;;;;;;7.46;81.03;100546.69;5013711;28;1980;-77
2022/10/31 04:04:58;;;;;;;;;;;;;;;7.47;81.23;100551.88;5009956;28;1726;-77
2022/10/31 04:07:25;;;;;;;;;;;;;;;7.47;81.14;100551.03;5037798;28;1706;-77
2022/10/31 04:09:51;;;;;;;;;;;;;;;7.48;81.31;100550.03;5009033;28;2007;-77
2022/10/31 04:12:17;;;;;;;;;;;;;;;7.48;80.89;100545.47;5010825;28;1697;-76
2022/10/31 04:14:46;;;;;;;;;;;;;;;7.46;81.31;100542.16;5008122;28;1740;-77
2022/10/31 04:17:13;;;;;;;;;;;;;;;7.47;81.06;100535.78;5007071;28;1838;-77
2022/10/31 04:19:39;;;;;;;;;;;;;;;7.48;81.13;100547.34;5009880;28;1695;-77
2022/10/31 04:22:05;;;;;;;;;;;;;;;7.48;80.97;100539.31;5011677;28;1918;-77
2022/10/31 04:24:32;;;;;;;;;;;;;;;7.49;80.96;100547.13;5011041;28;1927;-77
2022/10/31 04:26:58;;;;;;;;;;;;;;;7.49;81.12;100543.63;5011020;28;1923;-77
2022/10/31 04:29:24;;;;;;;;;;;;;;;7.49;81.24;100538.25;5009401;28;1760;-77
2022/10/31 04:31:50;;;;;;;;;;;;;;;7.49;80.95;100541.75;5009845;28;1780;-77
2022/10/31 04:34:17;;;;;;;;;;;;;;;7.49;80.91;100543.63;5012892;28;1777;-77
2022/10/31 04:36:43;;;;;;;;;;;;;;;7.49;81.01;100535.59;5006967;28;1732;-77
2022/10/31 04:39:09;;;;;;;;;;;;;;;7.50;81.25;100539.94;5007413;28;1890;-77
2022/10/31 04:41:36;;;;;;;;;;;;;;;7.52;81.32;100545.91;5009667;28;1910;-77
2022/10/31 04:44:02;;;;;;;;;;;;;;;7.50;80.89;100538.06;5006838;28;1784;-77
2022/10/31 04:46:28;;;;;;;;;;;;;;;7.50;80.99;100540.75;5006170;28;1911;-77
2022/10/31 04:48:57;;;;;;;;;;;;;;;7.50;81.22;100535.41;5013674;28;2017;-77
2022/10/31 04:51:24;;;;;;;;;;;;;;;7.50;80.96;100537.25;5010217;28;1702;-77
2022/10/31 04:53:50;;;;;;;;;;;;;;;7.50;81.01;100538.06;5018794;28;1813;-77
2022/10/31 04:56:16;;;;;;;;;;;;;;;7.49;81.20;100536.41;5015249;28;2002;-77
2022/10/31 04:58:42;;;;;;;;;;;;;;;7.50;81.26;100535.41;5007125;28;1784;-77
2022/10/31 05:01:11;;;;;;;;;;;;;;;7.53;80.80;100541.38;5007956;28;1981;-77
2022/10/31 05:03:39;;;;;;;;;;;;;;;7.55;80.85;100539.31;5014394;28;1784;-77
2022/10/31 05:06:05;;;;;;;;;;;;;;;7.51;81.00;100542.41;5008569;28;1737;-77
2022/10/31 05:08:31;;;;;;;;;;;;;;;7.53;81.23;100541.38;5007317;28;2099;-77
2022/10/31 05:11:00;;;;;;;;;;;;;;;7.53;81.03;100539.53;5008869;28;1814;-77
2022/10/31 05:13:29;;;;;;;;;;;;;;;7.51;80.86;100542.41;5014834;28;1930;-77
2022/10/31 05:15:55;;;;;;;;;;;;;;;7.52;80.87;100537.84;5027300;28;1765;-77
2022/10/31 05:18:21;;;;;;;;;;;;;;;7.53;81.20;100533.31;5025279;28;1801;-77
2022/10/31 05:20:48;;;;;;;;;;;;;;;7.53;81.35;100533.31;5024942;28;1860;-77
2022/10/31 05:23:14;;;;;;;;;;;;;;;7.55;80.86;100531.28;5024736;28;1980;-77
2022/10/31 05:25:40;;;;;;;;;;;;;;;7.54;81.27;100527.78;5025360;28;1757;-77
2022/10/31 05:28:07;;;;;;;;;;;;;;;7.56;81.09;100532.91;5011823;28;1765;-77
2022/10/31 05:30:33;;;;;;;;;;;;;;;7.54;80.98;100527.78;5023285;28;1796;-77
2022/10/31 05:32:59;;;;;;;;;;;;;;;7.54;81.29;100530.47;5025261;28;1892;-77
2022/10/31 05:35:25;;;;;;;;;;;;;;;7.55;81.14;100531.28;5029827;28;1737;-77
2022/10/31 05:37:52;;;;;;;;;;;;;;;7.55;81.34;100536.63;5025006;28;1891;-77
2022/10/31 05:40:18;;;;;;;;;;;;;;;7.55;80.84;100534.78;5024619;28;1825;-77
2022/10/31 05:42:44;;;;;;;;;;;;;;;7.55;80.90;100534.78;5020094;28;4790;-77
2022/10/31 05:45:11;;;;;;;;;;;;;;;7.56;81.20;100532.91;5023644;28;3412;-77
2022/10/31 05:47:37;;;;;;;;;;;;;;;7.56;81.33;100544.50;5022421;28;3307;-77
2022/10/31 05:50:03;;;;;;;;;;;;;;;7.58;80.87;100546.97;5030968;28;1752;-77
2022/10/31 05:52:29;;;;;;;;;;;;;;;7.57;81.21;100556.84;5019758;28;1622;-77
2022/10/31 05:54:56;;;;;;;;;;;;;;;7.59;81.06;100562.84;5017219;28;1525;-77
2022/10/31 05:57:22;;;;;;;;;;;;;;;7.58;81.03;100557.69;5016914;28;1602;-77
2022/10/31 05:59:49;;;;;;;;;;;;;;;7.59;81.30;100560.19;5013826;28;1943;-77
2022/10/31 06:02:15;;;;;;;;;;;;;;;7.58;80.99;100558.50;5011220;28;1919;-77
2022/10/31 06:04:41;;;;;;;;;;;;;;;7.59;81.25;100567.38;5010113;28;1904;-77
2022/10/31 06:07:07;;;;;;;;;;;;;;;7.59;81.29;100570.91;5019193;28;1848;-77
2022/10/31 06:09:34;;;;;;;;;;;;;;;7.60;81.36;100571.72;5022220;28;2679;-77
2022/10/31 06:12:00;;;;;;;;;;;;;;;7.60;81.29;100577.06;5020164;28;2967;-77
2022/10/31 06:14:26;;;;;;;;;;;;;;;7.60;81.24;100579.75;5024109;28;2225;-77
2022/10/31 06:16:53;;;;;;;;;;;;;;;7.60;80.95;100585.94;5020959;28;1835;-77
2022/10/31 06:19:19;;;;;;;;;;;;;;;7.60;80.92;100580.59;5021245;28;2168;-77
2022/10/31 06:21:45;;;;;;;;;;;;;;;7.61;80.92;100587.59;5012393;28;1972;-77
2022/10/31 06:24:11;;;;;;;;;;;;;;;7.60;80.98;100591.31;5016798;28;1508;-77
2022/10/31 06:26:38;;;;;;;;;;;;;;;7.60;80.93;100585.94;5013912;28;1684;-77
2022/10/31 06:29:04;;;;;;;;;;;;;;;7.62;81.20;100588.44;5015803;28;1707;-77
2022/10/31 06:31:30;;;;;;;;;;;;;;;7.60;80.92;100593.97;5027027;28;1635;-77
2022/10/31 06:33:57;;;;;;;;;;;;;;;7.61;80.87;100590.25;5033623;28;1404;-77
2022/10/31 06:36:23;;;;;;;;;;;;;;;7.62;81.18;100594.63;5032434;28;1628;-77
2022/10/31 06:38:49;;;;;;;;;;;;;;;7.62;81.02;100594.63;5015830;28;1175;-77
2022/10/31 06:41:15;;;;;;;;;;;;;;;7.62;81.08;100591.94;5016144;28;1144;-77
2022/10/31 06:43:42;;;;;;;;;;;;;;;7.63;81.17;100596.25;5028955;28;1989;-77
2022/10/31 06:46:08;;;;;;;;;;;;;;;7.63;80.87;100600.81;5020487;28;1484;-77
2022/10/31 06:48:35;;;;;;;;;;;;;;;7.63;81.38;100603.47;5018756;28;1489;-77
2022/10/31 06:51:01;;;;;;;;;;;;;;;7.64;81.17;100599.75;5013173;28;1883;-77
2022/10/31 06:53:29;;;;;;;;;;;;;;;7.64;81.10;100610.50;5017413;28;1565;-77
2022/10/31 06:55:55;;;;;;;;;;;;;;;7.64;80.99;100610.50;5018885;28;1698;-77
2022/10/31 06:58:21;;;;;;;;;;;;;;;7.65;80.91;100607.63;5016899;28;1500;-77
2022/10/31 07:00:48;;;;;;;;;;;;;;;7.68;80.66;100609.09;5022290;28;1518;-77
2022/10/31 07:03:16;;;;;;;;;;;;;;;7.67;80.95;100612.78;5019628;28;1910;-77
2022/10/31 07:05:43;;;;;;;;;;;;;;;7.67;81.02;100610.91;5018976;28;1943;-77
2022/10/31 07:08:11;;;;;;;;;;;;;;;7.69;80.73;100602.69;5019311;28;1794;-77
2022/10/31 07:10:38;;;;;;;;;;;;;;;7.68;81.06;100604.53;5018164;28;1534;-77
2022/10/31 07:13:04;;;;;;;;;;;;;;;7.72;80.88;100604.97;5018830;28;1761;-77
2022/10/31 07:15:33;;;;;;;;;;;;;;;7.71;80.87;100616.72;5016831;28;1686;-77
2022/10/31 07:18:01;;;;;;;;;;;;;;;7.69;80.78;100605.38;5016681;28;1541;-77
2022/10/31 07:20:28;;;;;;;;;;;;;;;7.69;80.91;100606.19;5017768;28;1555;-77
2022/10/31 07:22:56;;;;;;;;;;;;;;;7.73;80.58;100601.25;5020158;28;1970;-77
2022/10/31 07:25:22;;;;;;;;;;;;;;;7.71;81.03;100598.78;5019643;28;1964;-77
2022/10/31 07:27:50;;;;;;;;;;;;;;;7.73;80.95;100596.75;5029331;28;1478;-77
2022/10/31 07:30:18;;;;;;;;;;;;;;;7.71;81.17;100600.63;5017832;28;1325;-77
2022/10/31 07:32:44;;;;;;;;;;;;;;;7.71;81.16;100598.78;5035714;28;1246;-77
2022/10/31 07:35:10;;;;;;;;;;;;;;;7.71;80.73;100616.72;5034319;28;1301;-77
2022/10/31 07:37:36;;;;;;;;;;;;;;;7.72;80.89;100605.78;5022713;28;1229;-77
2022/10/31 07:40:05;;;;;;;;;;;;;;;7.72;80.88;100613.84;5018525;28;1198;-76
2022/10/31 07:42:31;;;;;;;;;;;;;;;7.75;80.77;100623.34;5036204;28;1978;-77
2022/10/31 07:45:00;;;;;;;;;;;;;;;7.76;80.70;100613.44;5036315;28;1303;-77
2022/10/31 07:47:29;;;;;;;;;;;;;;;7.73;80.65;100609.28;5031325;28;976;-77
2022/10/31 07:49:55;;;;;;;;;;;;;;;7.74;80.89;100608.28;5024831;28;1095;-77
2022/10/31 07:52:22;;;;;;;;;;;;;;;7.74;80.84;100610.97;5020542;28;1648;-77
2022/10/31 07:54:51;;;;;;;;;;;;;;;7.73;81.24;100603.94;5036304;28;1024;-78
2022/10/31 07:57:17;;;;;;;;;;;;;;;7.72;81.02;100607.66;5034102;28;1350;-77
2022/10/31 07:59:46;;;;;;;;;;;;;;;7.72;80.80;100597.75;5016160;28;1215;-77
2022/10/31 08:02:12;;;;;;;;;;;;;;;7.74;80.73;100600.25;5030998;28;1914;-77
2022/10/31 08:04:39;;;;;;;;;;;;;;;7.73;80.96;100606.59;5031017;28;2248;-77
2022/10/31 08:07:05;;;;;;;;;;;;;;;7.74;80.93;100603.75;5033611;28;1788;-77
2022/10/31 08:09:31;;;;;;;;;;;;;;;7.78;81.17;100606.03;5017608;28;1116;-77
2022/10/31 08:11:57;;;;;;;;;;;;;;;7.75;81.09;100599.19;5023011;28;4978;-77
2022/10/31 08:14:24;;;;;;;;;;;;;;;7.76;80.72;100590.13;5028911;28;4766;-77
2022/10/31 08:16:53;;;;;;;;;;;;;;;7.75;81.25;100596.53;5024526;28;4420;-77
2022/10/31 08:19:21;;;;;;;;;;;;;;;7.77;80.78;100604.38;5027988;28;1354;-77
2022/10/31 08:21:48;;;;;;;;;;;;;;;7.77;80.79;100613.25;5030277;28;1545;-77
2022/10/31 08:24:14;;;;;;;;;;;;;;;7.75;81.20;100607.25;5026313;28;1902;-77
2022/10/31 08:26:40;;;;;;;;;;;;;;;7.77;80.86;100607.88;5027407;28;1811;-77
2022/10/31 08:29:07;;;;;;;;;;;;;;;7.77;80.87;100612.41;5022724;28;4250;-77
2022/10/31 08:31:33;;;;;;;;;;;;;;;7.78;80.80;100619.44;5025373;28;1745;-77
2022/10/31 08:33:59;;;;;;;;;;;;;;;7.77;81.24;100628.50;5028018;28;1376;-77
2022/10/31 08:36:25;;;;;;;;;;;;;;;7.77;81.25;100634.69;5027597;28;1506;-77
2022/10/31 08:38:52;;;;;;;;;;;;;;;7.81;81.08;100643.16;5029720;28;2049;-77
2022/10/31 08:41:18;;;;;;;;;;;;;;;7.80;80.84;100630.78;5025760;28;1673;-77
2022/10/31 08:43:44;;;;;;;;;;;;;;;7.79;80.72;100632.63;5024536;28;1979;-77
2022/10/31 08:46:10;;;;;;;;;;;;;;;7.78;81.03;100630.97;5027753;28;1761;-77
2022/10/31 08:48:37;;;;;;;;;;;;;;;7.78;81.33;100627.47;5042502;28;1714;-77
2022/10/31 08:51:03;;;;;;;;;;;;;;;7.79;81.29;100631.78;5018036;28;1168;-77
2022/10/31 08:53:29;;;;;;;;;;;;;;;7.82;80.71;100634.91;5029848;28;1732;-77
2022/10/31 08:55:56;;;;;;;;;;;;;;;7.81;80.85;100622.53;5030528;28;1548;-77
2022/10/31 08:58:24;;;;;;;;;;;;;;;7.81;81.15;100619.84;5023523;28;1495;-77
2022/10/31 09:00:50;;;;;;;;;;;;;;;7.82;81.15;100616.13;5028426;28;1610;-77
2022/10/31 09:03:17;;;;;;;;;;;;;;;7.83;80.82;100619.66;5029865;28;1914;-77
2022/10/31 09:05:43;;;;;;;;;;;;;;;7.82;81.03;100612.63;5026708;28;1905;-77
2022/10/31 09:08:09;;;;;;;;;;;;;;;7.82;81.12;100612.63;5018431;28;1749;-77
2022/10/31 09:10:36;;;;;;;;;;;;;;;7.84;80.88;100624.00;5020585;28;1878;-77
2022/10/31 09:13:03;;;;;;;;;;;;;;;7.84;80.97;100619.44;5024915;28;1561;-77
2022/10/31 09:15:32;;;;;;;;;;;;;;;7.85;81.13;100620.28;5020854;28;1636;-77
2022/10/31 09:17:58;;;;;;;;;;;;;;;7.83;81.32;100620.47;5023423;28;1840;-77
2022/10/31 09:20:24;;;;;;;;;;;;;;;7.85;80.91;100621.13;5021192;28;1659;-77
2022/10/31 09:22:51;;;;;;;;;;;;;;;7.84;81.05;100622.13;5019467;28;1981;-77
2022/10/31 09:25:17;;;;;;;;;;;;;;;7.85;81.05;100625.63;5025297;28;1777;-77
2022/10/31 09:27:43;;;;;;;;;;;;;;;7.84;81.08;100619.44;5022327;28;1894;-77
2022/10/31 09:30:10;;;;;;;;;;;;;;;7.84;81.32;100624.00;5018935;28;1905;-77
2022/10/31 09:32:37;;;;;;;;;;;;;;;7.84;81.32;100619.44;5022226;28;1721;-77
2022/10/31 09:35:03;;;;;;;;;;;;;;;7.84;81.27;100632.03;5021201;28;1634;-77
2022/10/31 09:37:29;;;;;;;;;;;;;;;7.84;81.40;100627.50;5019029;28;2112;-77
2022/10/31 09:39:55;;;;;;;;;;;;;;;7.85;81.26;100637.22;5022326;28;2086;-77
2022/10/31 09:42:22;;;;;;;;;;;;;;;7.85;81.10;100631.84;5020746;28;2004;-77
2022/10/31 09:44:48;;;;;;;;;;;;;;;7.85;80.99;100641.72;5023963;28;2012;-77
2022/10/31 09:47:14;;;;;;;;;;;;;;;7.85;81.09;100647.94;5020428;28;2224;-77
2022/10/31 09:49:41;;;;;;;;;;;;;;;7.85;81.34;100650.63;5017613;28;5643;-77
2022/10/31 09:52:07;;;;;;;;;;;;;;;7.86;81.48;100651.44;5023653;28;1831;-77
2022/10/31 09:54:33;;;;;;;;;;;;;;;7.85;81.27;100641.72;5018556;28;3568;-77
2022/10/31 09:57:00;;;;;;;;;;;;;;;7.86;81.46;100641.53;5020767;28;1807;-77
2022/10/31 09:59:27;;;;;;;;;;;;;;;7.87;81.33;100645.03;5024537;28;2138;-77
2022/10/31 10:01:53;;;;;;;;;;;;;;;7.86;81.33;100640.72;5038573;28;1702;-77
2022/10/31 10:04:22;;;;;;;;;;;;;;;7.87;81.04;100645.88;5021679;28;1902;-77
2022/10/31 10:06:48;;;;;;;;;;;;;;;7.87;81.55;100635.13;5022545;28;4387;-77
2022/10/31 10:09:14;;;;;;;;;;;;;;;7.89;81.24;100645.69;5009019;28;5875;-77
2022/10/31 10:11:40;;;;;;;;;;;;;;;7.89;81.39;100645.69;5025160;28;4979;-77
2022/10/31 10:14:07;;;;;;;;;;;;;;;7.89;81.53;100632.28;5023153;28;5140;-77
2022/10/31 10:16:33;;;;;;;;;;;;;;;7.89;81.61;100635.78;5018735;28;1613;-77
2022/10/31 10:18:59;;;;;;;;;;;;;;;7.90;81.39;100636.59;5024938;28;1550;-77
2022/10/31 10:21:25;;;;;;;;;;;;;;;7.90;81.37;100642.78;5020967;28;1414;-77
2022/10/31 10:23:52;;;;;;;;;;;;;;;7.90;81.48;100648.16;5025130;28;1985;-77
2022/10/31 10:26:18;;;;;;;;;;;;;;;7.91;81.27;100647.13;5028955;28;4491;-77
2022/10/31 10:28:46;;;;;;;;;;;;;;;7.92;81.39;100634.56;5025072;28;1796;-77
2022/10/31 10:31:13;;;;;;;;;;;;;;;7.93;81.19;100641.56;5030086;28;1706;-77
2022/10/31 10:33:39;;;;;;;;;;;;;;;7.93;81.38;100644.25;5036244;28;1634;-77
2022/10/31 10:36:05;;;;;;;;;;;;;;;7.94;81.29;100657.47;5034713;28;1467;-77
2022/10/31 10:38:32;;;;;;;;;;;;;;;7.95;81.57;100655.59;5030272;28;1765;-77
2022/10/31 10:40:58;;;;;;;;;;;;;;;7.95;81.41;100652.94;5017901;28;1713;-77
2022/10/31 10:43:23;;;;;;;;;;;;;;;7.96;81.36;100654.56;5023334;28;1985;-77
2022/10/31 10:48:33;;;;;;;;;;;;;;;7.96;81.65;100652.72;5031628;28;1346;-77
2022/10/31 10:51:00;;;;;;;;;;;;;;;7.99;81.33;100658.72;5030437;28;1799;-77
2022/10/31 10:53:32;;;;;;;;;;;;;;;7.99;81.47;100661.38;5024939;28;1560;-77
2022/10/31 10:55:58;;;;;;;;;;;;;;;7.99;81.59;100658.72;5026514;28;1412;-77
2022/10/31 10:58:24;;;;;;;;;;;;;;;7.99;81.55;100656.84;5027683;28;1476;-77
2022/10/31 11:00:50;;;;;;;;;;;;;;;8.00;81.94;100663.03;5026713;28;2072;-77
2022/10/31 11:03:17;;;;;;;;;;;;;;;8.00;81.89;100644.25;5045789;28;2248;-77
2022/10/31 11:05:44;;;;;;;;;;;;;;;8.00;81.86;100660.34;5041442;28;1520;-77
2022/10/31 11:08:11;;;;;;;;;;;;;;;8.02;81.71;100669.03;5023150;28;1612;-77
2022/10/31 11:10:37;;;;;;;;;;;;;;;8.02;81.85;100669.84;5033052;28;1539;-77
2022/10/31 11:13:03;;;;;;;;;;;;;;;8.04;81.64;100667.00;5018256;28;1538;-77
2022/10/31 11:15:29;;;;;;;;;;;;;;;8.04;81.40;100656.25;5017603;28;1742;-77
2022/10/31 11:17:58;;;;;;;;;;;;;;;8.05;81.58;100661.41;5033606;28;1757;-77
2022/10/31 11:20:24;;;;;;;;;;;;;;;8.05;81.46;100655.22;5028372;28;1792;-77
2022/10/31 11:22:50;;;;;;;;;;;;;;;8.07;81.94;100661.22;5027142;28;1910;-77
2022/10/31 11:25:16;;;;;;;;;;;;;;;8.07;81.76;100655.84;5023481;28;1713;-77
2022/10/31 11:27:43;;;;;;;;;;;;;;;8.08;81.61;100660.19;5027302;28;1644;-77
2022/10/31 11:30:09;;;;;;;;;;;;;;;8.08;81.53;100663.69;5023149;28;1557;-77
2022/10/31 11:32:35;;;;;;;;;;;;;;;8.10;81.57;100667.00;5022195;28;1554;-77
2022/10/31 11:35:02;;;;;;;;;;;;;;;8.11;81.76;100665.16;5016697;28;1855;-77
2022/10/31 11:37:28;;;;;;;;;;;;;;;8.11;81.84;100671.34;5016532;28;1694;-77
2022/10/31 11:39:57;;;;;;;;;;;;;;;8.12;81.56;100666.81;5030022;28;1554;-77
2022/10/31 11:42:23;;;;;;;;;;;;;;;8.14;81.52;100664.75;5023834;28;1539;-77
2022/10/31 11:44:49;;;;;;;;;;;;;;;8.14;81.83;100670.09;5022010;28;5138;-77
2022/10/31 11:47:16;;;;;;;;;;;;;;;8.14;81.59;100664.75;5027481;28;2820;-77
2022/10/31 11:49:42;;;;;;;;;;;;;;;8.15;81.92;100666.41;5019919;28;1813;-77
2022/10/31 11:52:09;;;;;;;;;;;;;;;8.16;82.02;100662.69;5015160;28;4750;-77
2022/10/31 11:54:35;;;;;;;;;;;;;;;8.15;81.84;100667.25;5018038;28;1760;-77
2022/10/31 11:57:03;;;;;;;;;;;;;;;8.16;82.01;100660.84;5024987;28;1651;-77
2022/10/31 11:59:29;;;;;;;;;;;;;;;8.18;81.68;100666.03;5016214;28;1750;-76
2022/10/31 12:01:55;;;;;;;;;;;;;;;8.18;81.67;100668.69;5014990;28;1587;-77
2022/10/31 12:04:21;;;;;;;;;;;;;;;8.18;81.86;100664.16;5011162;28;2021;-77
2022/10/31 12:06:48;;;;;;;;;;;;;;;8.20;81.71;100663.94;5015511;28;1684;-77
2022/10/31 12:09:15;;;;;;;;;;;;;;;8.20;82.13;100670.13;5015890;28;1831;-77
2022/10/31 12:11:41;;;;;;;;;;;;;;;7.86;81.69;100617.41;5014782;28;1892;-77
2022/10/31 12:14:10;;;;;;;;;;;;;;;8.13;82.01;100655.06;5019473;28;1656;-77
2022/10/31 12:16:36;;;;;;;;;;;;;;;8.22;81.81;100664.56;5017939;28;1906;-77
2022/10/31 12:19:03;;;;;;;;;;;;;;;8.24;82.07;100656.34;5013811;28;1745;-77
2022/10/31 12:21:29;;;;;;;;;;;;;;;8.23;81.79;100660.84;5020996;28;1499;-77
2022/10/31 12:23:55;;;;;;;;;;;;;;;8.25;82.19;100666.03;5015880;28;1947;-77
2022/10/31 12:26:22;;;;;;;;;;;;;;;8.26;82.21;100668.50;5016573;28;1848;-77
2022/10/31 12:28:48;;;;;;;;;;;;;;;8.26;82.09;100665.81;5017295;28;1842;-77
2022/10/31 12:31:14;;;;;;;;;;;;;;;8.26;81.69;100657.75;5019140;28;5677;-78
2022/10/31 12:33:41;;;;;;;;;;;;;;;8.27;81.82;100659.44;5034061;28;4672;-77
2022/10/31 12:36:07;;;;;;;;;;;;;;;8.29;81.84;100661.91;5027738;28;4986;-77
2022/10/31 12:38:34;;;;;;;;;;;;;;;8.29;82.22;100662.72;5025096;28;1781;-77
2022/10/31 12:41:01;;;;;;;;;;;;;;;8.30;81.95;100667.09;5020599;28;1615;-77
2022/10/31 12:43:27;;;;;;;;;;;;;;;8.31;82.19;100674.09;5019790;28;1910;-77
2022/10/31 12:45:54;;;;;;;;;;;;;;;8.32;81.92;100680.28;5012963;28;1735;-77
2022/10/31 12:48:20;;;;;;;;;;;;;;;8.32;81.91;100666.88;5021617;28;4375;-77
2022/10/31 12:50:46;;;;;;;;;;;;;;;8.33;82.19;100674.72;5018836;28;1707;-77
2022/10/31 12:53:13;;;;;;;;;;;;;;;8.34;81.84;100673.69;5018375;28;1922;-77
2022/10/31 12:55:39;;;;;;;;;;;;;;;8.35;81.90;100674.50;5015161;28;1920;-77